Terminal Aerodrome Forecast
Issued by NWS Wilmington, OH

Home | Current Version | Previous Version | Text Only | Print | Product List | Glossary On
Versions: 1 2 3 4 5 6 7 8 9 10 11 12 13 14 15 16 17 18 19 20 21
000
FTUS41 KILN 011300 AAA
TAFILN
TAF AMD
KILN 011305Z 0113/0212 00000KT P6SM FEW100
     FM011400 07004KT P6SM FEW030
     FM011700 10005KT P6SM BKN060
     FM020200 12003KT P6SM VCTS BKN060CB
     FM020600 12003KT P6SM VCSH BKN050 OVC150
     FM020900 00000KT 5SM BR BKN050 OVC150=

USA.gov is the U.S. government's official web portal to all federal, state and local government web resources and services.